Time;durP1;ratioP1;P1;durP2;ratioP2;P2;SDS_P1;SDS_P2;PMS_P1;PMS_P2;Temp;Humidity;BMP_temperature;BMP_pressure;BME280_temperature;BME280_humidity;BME280_pressure;Samples;Min_cycle;Max_cycle;Signal;HPM_P1;HPM_P2
2022/07/02 00:01:10;;;;;;;6.65;0.90;;;12.50;76.90;;;;;;5076085;28;20055;-72
2022/07/02 00:03:42;;;;;;;4.30;1.15;;;12.50;76.90;;;;;;5069804;28;20052;-73
2022/07/02 00:06:14;;;;;;;3.35;1.02;;;12.50;76.90;;;;;;5094557;28;20052;-72
2022/07/02 00:08:43;;;;;;;4.32;0.90;;;12.60;76.90;;;;;;5062196;28;20402;-72
2022/07/02 00:11:14;;;;;;;2.13;0.80;;;12.50;76.80;;;;;;5075805;28;20051;-72
2022/07/02 00:13:42;;;;;;;1.88;0.80;;;12.50;76.70;;;;;;5077020;28;20045;-72
2022/07/02 00:16:11;;;;;;;7.03;1.10;;;12.50;76.90;;;;;;5087617;28;20511;-72
2022/07/02 00:18:40;;;;;;;5.55;1.25;;;12.60;77.10;;;;;;5092546;28;20059;-72
2022/07/02 00:21:08;;;;;;;4.20;1.17;;;12.50;77.00;;;;;;5067186;28;20048;-72
2022/07/02 00:23:36;;;;;;;6.05;1.25;;;12.50;76.90;;;;;;5073695;28;20067;-72
2022/07/02 00:26:09;;;;;;;4.90;1.42;;;12.50;77.10;;;;;;5073700;28;20048;-72
2022/07/02 00:28:41;;;;;;;3.70;1.17;;;12.40;77.10;;;;;;5082377;28;20036;-73
2022/07/02 00:31:09;;;;;;;3.08;1.35;;;12.40;77.10;;;;;;5056086;28;20048;-72
2022/07/02 00:33:38;;;;;;;4.72;1.38;;;12.30;77.20;;;;;;5074888;28;20067;-72
2022/07/02 00:36:06;;;;;;;3.45;1.00;;;12.30;77.30;;;;;;5090471;28;20538;-73
2022/07/02 00:38:34;;;;;;;4.60;1.10;;;12.20;77.40;;;;;;5094390;28;20443;-72
2022/07/02 00:41:02;;;;;;;5.43;1.30;;;12.10;77.70;;;;;;5092163;28;20059;-72
2022/07/02 00:43:31;;;;;;;6.35;1.40;;;12.10;77.70;;;;;;5091039;28;20048;-72
2022/07/02 00:46:00;;;;;;;2.80;1.33;;;12.00;77.80;;;;;;5092129;28;20067;-72
2022/07/02 00:48:28;;;;;;;3.30;1.30;;;11.90;77.90;;;;;;5073448;28;20058;-72
2022/07/02 00:50:56;;;;;;;7.82;1.40;;;11.90;77.90;;;;;;5084206;28;20048;-72
2022/07/02 00:53:23;;;;;;;4.57;1.25;;;11.90;78.00;;;;;;5093644;28;20075;-73
2022/07/02 00:55:57;;;;;;;6.18;1.23;;;11.80;78.10;;;;;;5075508;28;20048;-72
2022/07/02 00:58:27;;;;;;;3.95;1.10;;;11.80;78.10;;;;;;5072832;28;20524;-72
2022/07/02 01:00:55;;;;;;;2.92;1.05;;;11.70;78.10;;;;;;5073933;28;20053;-72
2022/07/02 01:03:24;;;;;;;7.47;1.48;;;11.70;78.20;;;;;;5091699;28;20044;-72
2022/07/02 01:05:52;;;;;;;5.32;1.20;;;11.60;78.20;;;;;;5077191;28;20430;-72
2022/07/02 01:11:11;;;;;;;7.97;1.15;;;11.60;78.40;;;;;;5080111;28;20059;-72
2022/07/02 01:13:39;;;;;;;5.70;1.30;;;11.40;78.40;;;;;;5078972;28;20371;-74
2022/07/02 01:16:07;;;;;;;8.38;1.48;;;11.40;78.50;;;;;;5072923;28;20041;-74
2022/07/02 01:18:38;;;;;;;4.32;1.10;;;11.30;78.60;;;;;;5054138;28;20059;-74
2022/07/02 01:21:05;;;;;;;4.32;1.00;;;11.30;78.80;;;;;;5073797;28;20051;-73
2022/07/02 01:23:33;;;;;;;3.00;1.05;;;11.30;78.80;;;;;;5072290;28;20067;-74
2022/07/02 01:26:00;;;;;;;5.30;1.10;;;11.30;78.90;;;;;;5078891;28;20397;-73
2022/07/02 01:28:28;;;;;;;6.60;1.10;;;11.30;78.80;;;;;;5075414;28;20059;-74
2022/07/02 01:30:56;;;;;;;2.20;0.93;;;11.30;78.90;;;;;;5073539;28;20048;-74
2022/07/02 01:33:24;;;;;;;4.63;0.90;;;11.20;79.00;;;;;;5093012;28;20055;-73
2022/07/02 01:35:51;;;;;;;3.03;1.07;;;11.20;79.00;;;;;;5092653;28;20059;-74
2022/07/02 01:38:19;;;;;;;7.13;1.40;;;11.10;79.10;;;;;;5092755;28;20070;-73
2022/07/02 01:40:47;;;;;;;5.70;1.00;;;11.00;79.20;;;;;;5091116;28;20432;-75
2022/07/02 01:43:15;;;;;;;6.85;1.10;;;11.00;79.40;;;;;;5074958;28;20048;-73
2022/07/02 01:45:42;;;;;;;5.70;1.13;;;11.00;79.50;;;;;;5088525;28;20497;-73
2022/07/02 01:48:11;;;;;;;2.15;1.17;;;11.00;79.50;;;;;;5092259;28;20387;-72
2022/07/02 01:50:38;;;;;;;2.90;0.98;;;11.00;79.50;;;;;;5090334;28;20044;-72
2022/07/02 01:53:06;;;;;;;6.32;1.00;;;10.90;79.60;;;;;;5087940;28;20044;-72
2022/07/02 01:55:34;;;;;;;4.75;0.95;;;10.90;79.70;;;;;;5091280;28;20048;-72
2022/07/02 01:58:02;;;;;;;8.95;1.13;;;10.90;79.80;;;;;;5092416;28;20048;-72
2022/07/02 02:00:30;;;;;;;3.00;1.00;;;10.90;79.70;;;;;;5092425;28;20370;-72
2022/07/02 02:02:57;;;;;;;5.80;1.08;;;11.00;79.80;;;;;;5075141;28;20044;-72
2022/07/02 02:05:25;;;;;;;8.98;0.85;;;11.00;79.70;;;;;;5092258;28;20051;-72
2022/07/02 02:07:52;;;;;;;4.70;0.93;;;11.10;79.70;;;;;;5073936;28;20425;-72
2022/07/02 02:10:20;;;;;;;7.95;1.15;;;11.10;79.70;;;;;;5092414;28;20039;-72
2022/07/02 02:12:48;;;;;;;4.68;1.10;;;11.20;79.70;;;;;;5092524;28;20048;-72
2022/07/02 02:15:16;;;;;;;4.75;0.90;;;11.30;79.90;;;;;;5074266;28;20063;-72
2022/07/02 02:17:43;;;;;;;6.47;1.25;;;11.30;79.80;;;;;;5092150;28;20074;-73
2022/07/02 02:20:11;;;;;;;6.03;1.20;;;11.30;79.70;;;;;;5087207;28;20040;-72
2022/07/02 02:22:38;;;;;;;7.85;1.25;;;11.50;79.60;;;;;;5092165;28;20044;-73
2022/07/02 02:25:06;;;;;;;3.08;0.65;;;11.60;79.80;;;;;;5092206;28;20595;-73
2022/07/02 02:27:34;;;;;;;3.17;0.80;;;11.70;79.90;;;;;;5092227;28;20048;-73
2022/07/02 02:30:02;;;;;;;4.28;0.90;;;11.80;80.00;;;;;;5091538;28;20441;-73
2022/07/02 02:32:30;;;;;;;3.45;0.90;;;11.90;79.80;;;;;;5091472;28;20302;-73
2022/07/02 02:34:58;;;;;;;5.82;1.30;;;12.00;79.60;;;;;;5091979;28;20048;-73
2022/07/02 02:37:27;;;;;;;9.55;1.00;;;12.00;79.50;;;;;;5092346;28;20049;-72
2022/07/02 02:39:54;;;;;;;5.30;1.17;;;12.20;79.40;;;;;;5091948;28;20055;-73
2022/07/02 02:42:22;;;;;;;3.67;0.73;;;12.20;79.50;;;;;;5092050;28;20056;-73
2022/07/02 02:44:50;;;;;;;4.13;0.88;;;12.30;79.30;;;;;;5087905;28;20051;-72
2022/07/02 02:47:21;;;;;;;3.22;0.77;;;12.30;79.20;;;;;;5079877;28;20048;-72
2022/07/02 02:49:49;;;;;;;5.47;0.82;;;12.30;79.20;;;;;;5074042;28;20051;-72
2022/07/02 02:52:17;;;;;;;4.07;0.70;;;12.30;79.20;;;;;;5091379;28;20052;-72
2022/07/02 02:54:45;;;;;;;8.82;1.13;;;12.30;79.10;;;;;;5111865;28;20039;-72
2022/07/02 02:57:13;;;;;;;5.45;0.98;;;12.40;79.10;;;;;;5112262;28;20665;-72
2022/07/02 02:59:41;;;;;;;3.50;1.00;;;12.40;79.10;;;;;;5111224;28;20044;-72
2022/07/02 03:02:08;;;;;;;4.03;1.08;;;12.30;79.20;;;;;;5111455;28;20048;-72
2022/07/02 03:04:36;;;;;;;6.10;0.90;;;12.30;79.30;;;;;;5096384;28;20492;-72
2022/07/02 03:07:04;;;;;;;5.60;0.77;;;12.30;79.60;;;;;;5091979;28;20405;-72
2022/07/02 03:09:32;;;;;;;7.05;0.70;;;12.30;79.70;;;;;;5095507;28;20043;-71
2022/07/02 03:11:59;;;;;;;2.35;0.73;;;12.30;79.90;;;;;;5060873;28;20044;-72
2022/07/02 03:14:27;;;;;;;6.50;1.02;;;12.20;80.10;;;;;;5077725;28;20040;-72
2022/07/02 03:16:54;;;;;;;5.63;0.95;;;12.10;80.30;;;;;;5095310;28;20055;-72
2022/07/02 03:19:22;;;;;;;3.78;0.90;;;12.10;80.40;;;;;;5094220;28;20442;-72
2022/07/02 03:21:50;;;;;;;3.10;0.95;;;12.00;80.70;;;;;;5095452;28;20048;-72
2022/07/02 03:24:18;;;;;;;4.97;1.10;;;12.00;80.80;;;;;;5095454;28;20458;-72
2022/07/02 03:26:45;;;;;;;6.45;1.08;;;12.10;81.00;;;;;;5096112;28;20040;-72
2022/07/02 03:29:13;;;;;;;4.05;0.82;;;12.10;80.90;;;;;;5095356;28;20119;-72
2022/07/02 03:31:40;;;;;;;5.07;0.93;;;12.10;81.20;;;;;;5095264;28;20044;-72
2022/07/02 03:34:08;;;;;;;7.82;1.35;;;12.20;81.30;;;;;;5095390;28;20405;-71
2022/07/02 03:36:36;;;;;;;7.15;1.25;;;12.20;81.20;;;;;;5095056;28;20044;-72
2022/07/02 03:39:03;;;;;;;6.85;1.15;;;12.30;81.20;;;;;;5095116;28;20052;-72
2022/07/02 03:41:31;;;;;;;8.35;1.02;;;12.30;81.00;;;;;;5095165;28;20048;-72
2022/07/02 03:43:58;;;;;;;6.15;1.33;;;12.30;80.90;;;;;;5095696;28;20044;-72
2022/07/02 03:46:26;;;;;;;3.67;1.02;;;12.30;80.80;;;;;;5094633;28;20393;-73
2022/07/02 03:48:54;;;;;;;4.47;1.08;;;12.40;80.90;;;;;;5093816;28;20060;-73
2022/07/02 03:51:21;;;;;;;4.60;1.30;;;12.50;80.90;;;;;;5076304;28;20047;-73
2022/07/02 03:53:49;;;;;;;5.90;1.30;;;12.50;80.90;;;;;;5094684;28;20150;-73
2022/07/02 03:56:16;;;;;;;5.85;1.50;;;12.50;81.00;;;;;;5094679;28;20052;-73
2022/07/02 03:58:44;;;;;;;4.70;1.33;;;12.50;81.30;;;;;;5076811;28;20051;-73
2022/07/02 04:01:12;;;;;;;3.20;1.30;;;12.50;81.90;;;;;;5077335;28;20047;-73
2022/07/02 04:03:39;;;;;;;5.43;1.30;;;12.50;81.90;;;;;;5094714;28;20044;-73
2022/07/02 04:06:07;;;;;;;5.47;1.60;;;12.50;82.00;;;;;;5094646;28;20051;-72
2022/07/02 04:08:34;;;;;;;8.10;1.50;;;12.50;82.30;;;;;;5076677;28;20059;-73
2022/07/02 04:11:02;;;;;;;5.45;1.50;;;12.50;82.40;;;;;;5076550;28;20048;-73
2022/07/02 04:13:30;;;;;;;5.15;1.75;;;12.50;82.70;;;;;;5094628;28;20409;-72
2022/07/02 04:15:57;;;;;;;6.13;1.65;;;12.50;83.00;;;;;;5094302;28;20126;-73
2022/07/02 04:18:25;;;;;;;6.60;1.27;;;12.40;83.10;;;;;;5094371;28;20067;-73
2022/07/02 04:20:53;;;;;;;5.15;1.30;;;12.40;83.20;;;;;;5093776;28;20054;-73
2022/07/02 04:23:20;;;;;;;7.32;1.40;;;12.30;83.40;;;;;;5094443;28;20048;-73
2022/07/02 04:25:48;;;;;;;7.68;1.17;;;12.30;83.60;;;;;;5094198;28;20378;-73
2022/07/02 04:28:15;;;;;;;6.65;1.20;;;12.30;83.90;;;;;;5092986;28;20428;-73
2022/07/02 04:30:43;;;;;;;4.20;1.00;;;12.30;83.90;;;;;;5094085;28;20055;-73
2022/07/02 04:33:10;;;;;;;4.05;1.30;;;12.40;84.30;;;;;;5093836;28;20055;-73
2022/07/02 04:35:38;;;;;;;5.85;1.30;;;12.30;84.30;;;;;;5087400;28;20050;-73
2022/07/02 04:38:05;;;;;;;5.90;1.10;;;12.30;84.40;;;;;;5096018;28;20047;-73
2022/07/02 04:40:33;;;;;;;6.85;1.10;;;12.40;84.50;;;;;;5114376;28;20400;-73
2022/07/02 04:43:01;;;;;;;5.10;0.93;;;12.40;84.40;;;;;;5114410;28;20055;-73
2022/07/02 04:45:28;;;;;;;5.03;1.30;;;12.40;84.50;;;;;;5113528;28;20060;-72
2022/07/02 04:47:56;;;;;;;7.60;1.15;;;12.40;84.60;;;;;;5095417;28;20096;-73
2022/07/02 04:50:23;;;;;;;4.22;1.50;;;12.50;84.60;;;;;;5114232;28;20050;-73
2022/07/02 04:52:51;;;;;;;6.47;0.95;;;12.50;84.60;;;;;;5112385;28;20059;-73
2022/07/02 04:55:19;;;;;;;4.72;1.50;;;12.50;84.60;;;;;;5112979;28;20046;-73
2022/07/02 04:57:46;;;;;;;5.10;1.20;;;12.60;84.50;;;;;;5095734;28;20070;-73
2022/07/02 05:00:15;;;;;;;2.72;0.95;;;12.60;84.40;;;;;;5114005;28;20039;-73
2022/07/02 05:02:42;;;;;;;6.95;1.30;;;12.60;84.30;;;;;;5113907;28;20051;-73
2022/07/02 05:05:10;;;;;;;7.28;1.52;;;12.70;84.40;;;;;;5113893;28;20048;-73
2022/07/02 05:07:37;;;;;;;4.88;1.10;;;12.70;84.40;;;;;;5095795;28;20051;-73
2022/07/02 05:10:05;;;;;;;3.88;0.88;;;12.80;84.40;;;;;;5112916;28;20058;-73
2022/07/02 05:12:33;;;;;;;7.88;1.20;;;12.80;84.40;;;;;;5113574;28;20457;-73
2022/07/02 05:15:00;;;;;;;5.03;1.35;;;12.80;84.40;;;;;;5112644;28;20051;-73
2022/07/02 05:17:28;;;;;;;2.92;0.95;;;12.80;84.40;;;;;;5113565;28;20389;-73
2022/07/02 05:19:55;;;;;;;5.10;1.13;;;12.80;84.40;;;;;;5112566;28;20099;-73
2022/07/02 05:22:23;;;;;;;5.80;1.30;;;12.80;84.40;;;;;;5113619;28;20046;-73
2022/07/02 05:24:50;;;;;;;4.88;1.05;;;12.80;84.50;;;;;;5083052;28;20047;-73
2022/07/02 05:27:18;;;;;;;3.05;0.98;;;12.80;84.60;;;;;;5092593;28;20055;-73
2022/07/02 05:29:46;;;;;;;6.53;1.60;;;12.80;84.60;;;;;;5091851;28;20489;-73
2022/07/02 05:32:15;;;;;;;6.63;1.30;;;12.90;84.70;;;;;;5074919;28;20114;-73
2022/07/02 05:34:43;;;;;;;3.50;1.05;;;12.90;84.70;;;;;;5092965;28;20043;-73
2022/07/02 05:37:11;;;;;;;6.80;0.93;;;12.90;84.70;;;;;;5092851;28;20047;-73
2022/07/02 05:39:38;;;;;;;2.65;0.90;;;12.90;84.70;;;;;;5092892;28;20407;-73
2022/07/02 05:42:06;;;;;;;6.07;1.00;;;12.90;84.90;;;;;;5074745;28;20408;-73
2022/07/02 05:44:33;;;;;;;5.75;1.27;;;12.90;84.90;;;;;;5093322;28;20052;-73
2022/07/02 05:47:01;;;;;;;4.25;1.02;;;12.90;84.90;;;;;;5092601;28;20040;-73
2022/07/02 05:49:29;;;;;;;8.23;1.00;;;12.90;85.00;;;;;;5074666;28;20517;-73
2022/07/02 05:51:56;;;;;;;4.53;1.00;;;12.90;85.00;;;;;;5074628;28;20052;-73
2022/07/02 05:54:24;;;;;;;4.18;1.20;;;12.80;85.10;;;;;;5092735;28;20040;-73
2022/07/02 05:56:51;;;;;;;2.20;1.00;;;12.80;85.30;;;;;;5074286;28;20052;-73
2022/07/02 05:59:21;;;;;;;2.50;1.00;;;12.80;85.70;;;;;;5093096;28;20044;-73
2022/07/02 06:01:49;;;;;;;2.08;1.05;;;12.80;86.00;;;;;;5074530;28;20039;-74
2022/07/02 06:04:16;;;;;;;2.20;0.70;;;12.80;86.10;;;;;;5092088;28;20599;-73
2022/07/02 06:09:30;;;;;;;4.95;1.02;;;12.80;86.40;;;;;;5092511;28;20040;-73
2022/07/02 06:11:58;;;;;;;5.32;1.08;;;12.80;86.60;;;;;;5093885;28;20044;-72
2022/07/02 06:14:26;;;;;;;8.07;1.23;;;12.90;86.60;;;;;;5093597;28;20376;-73
2022/07/02 06:16:53;;;;;;;4.43;0.98;;;12.90;86.60;;;;;;5093575;28;20035;-72
2022/07/02 06:19:22;;;;;;;1.95;0.90;;;13.00;86.70;;;;;;5083678;28;20052;-72
2022/07/02 06:21:49;;;;;;;3.42;1.00;;;13.00;86.80;;;;;;5063416;28;20052;-73
2022/07/02 06:24:17;;;;;;;3.25;1.20;;;13.10;86.80;;;;;;5073270;28;20067;-72
2022/07/02 06:26:45;;;;;;;1.50;0.80;;;13.10;86.80;;;;;;5072725;28;20398;-73
2022/07/02 06:29:12;;;;;;;2.20;0.90;;;13.10;86.80;;;;;;5081435;28;20052;-73
2022/07/02 06:31:40;;;;;;;6.85;1.10;;;13.00;86.90;;;;;;5085258;28;20048;-72
2022/07/02 06:34:08;;;;;;;1.73;0.80;;;13.00;86.90;;;;;;5078091;28;20049;-72
2022/07/02 06:36:35;;;;;;;2.72;1.23;;;13.10;87.00;;;;;;5088922;28;20051;-73
2022/07/02 06:39:03;;;;;;;2.55;0.85;;;13.00;87.00;;;;;;5085446;28;20048;-72
2022/07/02 06:44:17;;;;;;;1.38;0.80;;;13.10;87.10;;;;;;5095398;28;20067;-72
2022/07/02 06:46:45;;;;;;;3.92;0.70;;;13.20;87.10;;;;;;5084792;28;20052;-72
2022/07/02 06:49:13;;;;;;;0.98;0.50;;;13.20;87.10;;;;;;5057926;28;20632;-72
2022/07/02 06:51:40;;;;;;;1.17;0.73;;;13.20;87.10;;;;;;5080632;28;20036;-72
2022/07/02 06:54:08;;;;;;;2.83;0.70;;;13.30;87.20;;;;;;5077684;28;20074;-72
2022/07/02 06:56:36;;;;;;;2.92;0.90;;;13.30;87.20;;;;;;5086279;28;20069;-73
2022/07/02 06:59:04;;;;;;;1.30;0.70;;;13.30;87.20;;;;;;5087300;28;20055;-72
2022/07/02 07:01:33;;;;;;;3.15;0.70;;;13.40;87.10;;;;;;5087576;28;20052;-72
2022/07/02 07:04:00;;;;;;;0.43;0.40;;;13.40;87.10;;;;;;5098044;28;20063;-73
2022/07/02 07:06:39;;;;;;;0.57;0.32;;;13.40;87.20;;;;;;5095092;28;20047;-72
2022/07/02 07:09:09;;;;;;;0.75;0.40;;;13.50;87.30;;;;;;5061703;28;20059;-72
2022/07/02 07:11:36;;;;;;;0.80;0.30;;;13.50;87.30;;;;;;5076203;28;20069;-72
2022/07/02 07:14:04;;;;;;;0.98;0.65;;;13.60;87.30;;;;;;5094180;28;20036;-72
2022/07/02 07:16:32;;;;;;;0.68;0.50;;;13.60;87.20;;;;;;5094107;28;20051;-72
2022/07/02 07:19:01;;;;;;;0.90;0.20;;;13.70;87.10;;;;;;5079270;28;20457;-72
2022/07/02 07:21:29;;;;;;;0.60;0.32;;;13.70;87.10;;;;;;5094619;28;20512;-73
2022/07/02 07:23:56;;;;;;;0.20;0.20;;;13.80;87.00;;;;;;5092294;28;20051;-72
2022/07/02 07:26:24;;;;;;;1.27;0.32;;;13.80;87.00;;;;;;5092961;28;20040;-72
2022/07/02 07:28:52;;;;;;;0.98;0.32;;;13.80;87.10;;;;;;5074210;28;20485;-72
2022/07/02 07:31:20;;;;;;;1.95;0.20;;;13.90;86.90;;;;;;5092975;28;20063;-72
2022/07/02 07:33:52;;;;;;;1.13;0.30;;;14.00;86.90;;;;;;5093927;28;20051;-73
2022/07/02 07:36:22;;;;;;;1.65;0.45;;;14.00;86.50;;;;;;5091332;28;20045;-73
2022/07/02 07:38:51;;;;;;;2.78;0.40;;;14.00;86.50;;;;;;5093194;28;20083;-73
2022/07/02 07:41:20;;;;;;;1.27;0.40;;;14.20;86.70;;;;;;5089060;28;20056;-73
2022/07/02 07:43:48;;;;;;;0.73;0.30;;;14.30;86.50;;;;;;5091129;28;20237;-73
2022/07/02 07:46:15;;;;;;;5.47;0.50;;;14.40;86.30;;;;;;5094223;28;20405;-73
2022/07/02 07:48:43;;;;;;;0.45;0.32;;;14.50;85.90;;;;;;5095442;28;20055;-73
2022/07/02 07:51:13;;;;;;;1.65;0.52;;;14.60;85.90;;;;;;5093830;28;20054;-73
2022/07/02 07:53:43;;;;;;;0.65;0.20;;;14.70;85.70;;;;;;5092464;28;20052;-73
2022/07/02 07:56:16;;;;;;;0.52;0.20;;;14.80;85.50;;;;;;5092777;28;20059;-73
2022/07/02 07:58:44;;;;;;;1.85;0.50;;;14.80;85.10;;;;;;5094308;28;20047;-73
2022/07/02 08:01:12;;;;;;;1.00;0.30;;;14.80;84.00;;;;;;5072275;28;20056;-73
2022/07/02 08:03:40;;;;;;;0.50;0.40;;;14.80;84.30;;;;;;5093543;28;20062;-73
2022/07/02 08:06:07;;;;;;;3.20;0.50;;;14.80;84.30;;;;;;5094084;28;20062;-73
2022/07/02 08:08:35;;;;;;;1.65;0.40;;;14.80;84.20;;;;;;5092304;28;20047;-73
2022/07/02 08:11:03;;;;;;;1.05;0.32;;;14.80;84.00;;;;;;5093097;28;20040;-73
2022/07/02 08:13:32;;;;;;;1.85;0.45;;;14.80;83.90;;;;;;5075484;28;20154;-73
2022/07/02 08:16:00;;;;;;;1.85;0.30;;;14.90;83.80;;;;;;5073892;28;20048;-73
2022/07/02 08:18:28;;;;;;;1.30;0.50;;;15.00;83.50;;;;;;5092757;28;20056;-73
2022/07/02 08:20:56;;;;;;;1.25;0.50;;;15.10;83.50;;;;;;5089803;28;20048;-73
2022/07/02 08:23:23;;;;;;;2.28;0.40;;;15.30;83.50;;;;;;5090245;28;20507;-73
2022/07/02 08:25:53;;;;;;;1.08;0.40;;;15.50;82.90;;;;;;5093184;28;20051;-74
2022/07/02 08:28:25;;;;;;;1.65;0.43;;;15.70;82.20;;;;;;5073452;28;20512;-74
2022/07/02 08:30:53;;;;;;;2.00;0.50;;;15.70;81.20;;;;;;5092959;28;20163;-74
2022/07/02 08:33:21;;;;;;;2.03;0.40;;;15.70;80.10;;;;;;5088699;28;20051;-74
2022/07/02 08:35:49;;;;;;;1.63;0.35;;;15.70;78.70;;;;;;5090561;28;20059;-73
2022/07/02 08:38:16;;;;;;;1.60;0.50;;;15.70;77.50;;;;;;5090457;28;20043;-74
2022/07/02 08:40:44;;;;;;;1.65;0.50;;;15.70;77.20;;;;;;5093014;28;20044;-73
2022/07/02 08:43:14;;;;;;;3.47;0.50;;;15.70;77.40;;;;;;5075668;28;20394;-73
2022/07/02 08:45:43;;;;;;;3.05;0.60;;;15.80;77.20;;;;;;5090146;28;20056;-73
2022/07/02 08:48:12;;;;;;;2.15;0.50;;;15.80;75.40;;;;;;5091739;28;20531;-73
2022/07/02 08:50:40;;;;;;;0.85;0.25;;;15.90;75.90;;;;;;5072956;28;20055;-73
2022/07/02 08:53:08;;;;;;;5.35;0.52;;;15.90;75.80;;;;;;5093489;28;20041;-73
2022/07/02 08:55:37;;;;;;;1.38;0.30;;;15.90;75.70;;;;;;5093265;28;20052;-73
2022/07/02 08:58:06;;;;;;;2.60;0.50;;;15.80;75.80;;;;;;5092687;28;20048;-73
2022/07/02 09:00:34;;;;;;;0.90;0.32;;;15.80;76.60;;;;;;5093312;28;20040;-73
2022/07/02 09:03:03;;;;;;;1.70;0.60;;;15.90;77.00;;;;;;5090716;28;20122;-73
2022/07/02 09:05:32;;;;;;;4.38;0.65;;;16.00;77.10;;;;;;5091458;28;20052;-74
2022/07/02 09:08:01;;;;;;;2.70;0.82;;;16.10;76.90;;;;;;5095491;28;20405;-73
2022/07/02 09:10:30;;;;;;;1.77;0.45;;;16.20;75.30;;;;;;5092889;28;20044;-73
2022/07/02 09:12:59;;;;;;;2.25;0.50;;;16.10;75.00;;;;;;5058055;28;20375;-73
2022/07/02 09:15:27;;;;;;;3.58;0.55;;;16.20;73.30;;;;;;5093146;28;20044;-73
2022/07/02 09:17:55;;;;;;;2.15;0.40;;;16.20;72.90;;;;;;5093146;28;20051;-73
2022/07/02 09:20:23;;;;;;;4.57;0.55;;;16.30;72.10;;;;;;5075188;28;20047;-73
2022/07/02 09:22:52;;;;;;;2.40;0.50;;;16.40;72.10;;;;;;5093142;28;20067;-73
2022/07/02 09:25:24;;;;;;;2.00;0.50;;;16.60;72.50;;;;;;5092389;28;20044;-74
2022/07/02 09:28:00;;;;;;;3.20;0.70;;;16.80;72.00;;;;;;5095622;28;20484;-74
2022/07/02 09:30:30;;;;;;;5.20;0.80;;;16.80;72.00;;;;;;5094428;28;20048;-74
2022/07/02 09:35:45;;;;;;;2.25;0.68;;;17.40;71.20;;;;;;5092958;28;20036;-74
2022/07/02 09:38:13;;;;;;;5.28;1.00;;;17.70;69.10;;;;;;5092022;28;20056;-73
2022/07/02 09:40:51;;;;;;;7.28;0.73;;;17.80;67.00;;;;;;5077815;28;20044;-74
2022/07/02 09:43:30;;;;;;;2.72;0.63;;;17.80;67.80;;;;;;5095774;28;20044;-74
2022/07/02 09:45:59;;;;;;;3.28;0.60;;;17.80;66.00;;;;;;5091827;28;20051;-74
2022/07/02 09:48:27;;;;;;;5.20;0.60;;;17.80;65.80;;;;;;5103263;28;20473;-73
2022/07/02 09:51:03;;;;;;;2.83;0.60;;;17.80;65.00;;;;;;5090998;28;20047;-74
2022/07/02 09:53:32;;;;;;;4.47;0.85;;;17.70;65.50;;;;;;5074173;28;20083;-73
2022/07/02 09:56:04;;;;;;;2.97;0.90;;;17.60;66.10;;;;;;5074610;28;20063;-73
2022/07/02 09:58:33;;;;;;;2.47;0.57;;;17.60;66.30;;;;;;5091553;28;20032;-73
2022/07/02 10:01:02;;;;;;;2.67;0.50;;;17.70;66.30;;;;;;5091758;28;20047;-73
2022/07/02 10:03:30;;;;;;;2.08;0.63;;;17.90;65.90;;;;;;5090865;28;20048;-73
2022/07/02 10:05:58;;;;;;;2.65;0.50;;;18.00;63.60;;;;;;5092354;28;20039;-75
2022/07/02 10:08:26;;;;;;;2.95;0.57;;;18.20;62.60;;;;;;5093652;28;20051;-73
2022/07/02 10:10:54;;;;;;;1.73;0.50;;;18.20;63.20;;;;;;5084274;28;20044;-73
2022/07/02 10:13:23;;;;;;;1.88;0.50;;;18.30;61.90;;;;;;5091903;28;20052;-74
2022/07/02 10:15:53;;;;;;;3.40;0.68;;;18.30;61.60;;;;;;5090417;28;20619;-73
2022/07/02 10:18:24;;;;;;;3.63;0.90;;;18.30;61.70;;;;;;5075731;28;20064;-73
2022/07/02 10:20:56;;;;;;;3.05;0.77;;;18.30;61.90;;;;;;5078774;28;20390;-73
2022/07/02 10:23:24;;;;;;;2.73;0.60;;;18.50;61.50;;;;;;5082689;28;20059;-70
2022/07/02 10:25:53;;;;;;;2.80;0.65;;;18.70;61.20;;;;;;5084002;28;20036;-70
2022/07/02 10:28:20;;;;;;;1.92;0.43;;;18.90;60.50;;;;;;5079493;28;20044;-70
2022/07/02 10:30:49;;;;;;;3.95;0.52;;;19.00;58.60;;;;;;5081195;28;20036;-70
2022/07/02 10:33:31;;;;;;;2.47;0.63;;;18.90;58.10;;;;;;5087849;28;20043;-70
2022/07/02 10:36:01;;;;;;;1.73;0.60;;;18.90;57.30;;;;;;5082574;28;20036;-70
2022/07/02 10:38:34;;;;;;;2.13;0.50;;;18.80;57.40;;;;;;5093136;28;20048;-75
2022/07/02 10:41:02;;;;;;;4.65;0.70;;;18.80;58.30;;;;;;5074228;28;20074;-73
2022/07/02 10:43:33;;;;;;;4.22;0.77;;;19.10;58.00;;;;;;5085822;28;20051;-74
2022/07/02 10:46:09;;;;;;;2.33;0.60;;;19.20;56.90;;;;;;5053561;28;20138;-72
2022/07/02 10:48:51;;;;;;;3.25;0.50;;;19.00;55.60;;;;;;5078311;28;20039;-72
2022/07/02 10:51:27;;;;;;;2.65;0.88;;;19.10;55.80;;;;;;5091957;28;20048;-72
2022/07/02 10:54:06;;;;;;;1.50;0.70;;;19.30;56.00;;;;;;5092128;28;20055;-72
2022/07/02 10:56:46;;;;;;;2.65;0.80;;;19.80;56.70;;;;;;5091880;28;20044;-72
2022/07/02 10:59:27;;;;;;;4.45;0.80;;;20.20;54.50;;;;;;5092016;28;20052;-71
2022/07/02 11:02:06;;;;;;;2.97;0.60;;;20.20;54.00;;;;;;5091015;28;20413;-71
2022/07/02 11:04:34;;;;;;;4.20;0.65;;;20.10;54.30;;;;;;5090677;28;20501;-71
2022/07/02 11:07:07;;;;;;;2.33;0.90;;;19.90;54.30;;;;;;5090628;28;20055;-73
2022/07/02 11:09:55;;;;;;;2.55;0.90;;;19.80;53.60;;;;;;5090796;28;20043;-70
2022/07/02 11:12:43;;;;;;;3.63;0.50;;;19.80;54.00;;;;;;5073409;28;20051;-71
2022/07/02 11:15:27;;;;;;;3.72;0.60;;;19.60;53.90;;;;;;5091099;28;20055;-72
2022/07/02 11:18:01;;;;;;;4.93;0.60;;;19.60;54.00;;;;;;5091561;28;20473;-74
2022/07/02 11:20:29;;;;;;;1.48;0.60;;;19.50;54.10;;;;;;5090108;28;20401;-70
2022/07/02 11:22:56;;;;;;;3.38;0.70;;;19.40;53.40;;;;;;5090675;28;20404;-70
2022/07/02 11:25:24;;;;;;;2.92;0.40;;;19.30;53.30;;;;;;5090687;28;20040;-70
2022/07/02 11:28:00;;;;;;;2.88;0.73;;;19.10;53.50;;;;;;5089514;28;20405;-74
2022/07/02 11:30:29;;;;;;;4.10;0.60;;;19.10;54.60;;;;;;5095453;28;20122;-70
2022/07/02 11:32:57;;;;;;;3.38;0.60;;;19.60;54.20;;;;;;5095500;28;20047;-70
2022/07/02 11:35:25;;;;;;;0.65;0.40;;;20.00;52.60;;;;;;5095571;28;20206;-70
2022/07/02 11:37:57;;;;;;;3.35;0.95;;;20.10;51.20;;;;;;5094468;28;20044;-67
2022/07/02 11:40:26;;;;;;;3.80;0.47;;;20.10;51.40;;;;;;5094034;28;20532;-67
2022/07/02 11:42:54;;;;;;;1.25;0.40;;;20.30;51.30;;;;;;5095350;28;20048;-70
2022/07/02 11:45:21;;;;;;;3.72;0.50;;;20.30;50.80;;;;;;5096963;28;20052;-68
2022/07/02 11:47:50;;;;;;;1.17;0.20;;;20.60;50.50;;;;;;5090246;28;20044;-69
2022/07/02 11:50:35;;;;;;;2.50;0.50;;;20.80;48.80;;;;;;5075296;28;20056;-67
2022/07/02 11:53:06;;;;;;;1.15;0.30;;;20.70;48.50;;;;;;5083736;28;20052;-66
2022/07/02 11:55:34;;;;;;;2.75;0.52;;;20.80;48.50;;;;;;5106078;28;20048;-67
2022/07/02 11:58:01;;;;;;;1.50;0.30;;;20.90;48.00;;;;;;5100450;28;20051;-67
2022/07/02 12:00:32;;;;;;;2.65;0.30;;;21.00;48.00;;;;;;5068906;28;20449;-80
2022/07/02 12:03:13;;;;;;;2.22;0.40;;;21.00;46.90;;;;;;5109115;28;20047;-67
2022/07/02 12:05:51;;;;;;;1.15;0.45;;;20.90;47.70;;;;;;5083163;28;20393;-67
2022/07/02 12:08:18;;;;;;;1.45;0.65;;;20.80;47.80;;;;;;5088649;28;20055;-66
2022/07/02 12:10:46;;;;;;;1.73;0.32;;;20.50;48.40;;;;;;5107309;28;20370;-67
2022/07/02 12:13:13;;;;;;;1.98;0.40;;;20.30;48.70;;;;;;5100278;28;20103;-67
2022/07/02 12:15:43;;;;;;;2.47;0.40;;;20.00;49.50;;;;;;5103025;28;20043;-67
2022/07/02 12:18:19;;;;;;;1.95;0.50;;;19.80;50.50;;;;;;5094157;28;20041;-68
2022/07/02 12:20:47;;;;;;;3.33;0.75;;;19.80;50.00;;;;;;5101337;28;20048;-68
2022/07/02 12:23:17;;;;;;;3.08;0.50;;;19.80;49.90;;;;;;5111122;28;20500;-70
2022/07/02 12:25:47;;;;;;;1.92;0.40;;;19.80;50.90;;;;;;5093446;28;20385;-72
2022/07/02 12:31:04;;;;;;;4.80;0.45;;;20.50;50.50;;;;;;5097375;28;20048;-71
2022/07/02 12:33:35;;;;;;;1.70;0.40;;;20.60;49.50;;;;;;5091111;28;20104;-69
2022/07/02 12:36:04;;;;;;;1.60;0.30;;;20.70;49.70;;;;;;5087481;28;20040;-70
2022/07/02 12:38:43;;;;;;;1.75;0.40;;;20.70;48.30;;;;;;5092785;28;20048;-70
2022/07/02 12:41:11;;;;;;;2.35;0.40;;;20.60;48.30;;;;;;5088093;28;20052;-69
2022/07/02 12:43:39;;;;;;;1.10;0.40;;;20.70;48.30;;;;;;5087520;28;20063;-69
2022/07/02 12:46:07;;;;;;;2.28;0.40;;;21.10;48.00;;;;;;5081944;28;20055;-69
2022/07/02 12:48:45;;;;;;;1.00;0.40;;;21.60;47.90;;;;;;5095704;28;20055;-69
2022/07/02 12:51:13;;;;;;;1.90;0.47;;;22.00;44.70;;;;;;5076056;28;20048;-70
2022/07/02 12:53:41;;;;;;;0.82;0.35;;;21.90;45.00;;;;;;5081355;28;20054;-70
2022/07/02 12:56:10;;;;;;;1.63;0.40;;;22.00;45.30;;;;;;5106310;28;20047;-69
2022/07/02 12:58:38;;;;;;;1.67;0.57;;;22.30;44.40;;;;;;5095826;28;20047;-70
2022/07/02 13:01:06;;;;;;;2.15;0.30;;;22.10;44.40;;;;;;5109092;28;20047;-70
2022/07/02 13:03:33;;;;;;;3.20;0.60;;;21.80;45.80;;;;;;5084760;28;20428;-70
2022/07/02 13:06:02;;;;;;;3.67;0.57;;;21.80;46.60;;;;;;5095654;28;20055;-69
2022/07/02 13:08:30;;;;;;;3.75;0.77;;;21.70;46.40;;;;;;5095499;28;20240;-70
2022/07/02 13:10:58;;;;;;;3.03;0.40;;;21.30;47.00;;;;;;5092443;28;20048;-70